Time;durP1;ratioP1;P1;durP2;ratioP2;P2;SDS_P1;SDS_P2;PMS_P1;PMS_P2;Temp;Humidity;BMP_temperature;BMP_pressure;BME280_temperature;BME280_humidity;BME280_pressure;Samples;Min_cycle;Max_cycle;Signal;HPM_P1;HPM_P2
2024/02/27 00:02:07;;;;;;;12.65;6.28;;;5.40;91.20;;;;;;4981789;28;20038;-87
2024/02/27 00:04:34;;;;;;;13.05;6.70;;;5.40;91.30;;;;;;4979077;28;20122;-88
2024/02/27 00:06:59;;;;;;;11.95;6.05;;;5.40;91.40;;;;;;4976278;28;20035;-87
2024/02/27 00:09:25;;;;;;;11.38;6.57;;;5.50;91.50;;;;;;4977000;28;20031;-86
2024/02/27 00:11:51;;;;;;;14.10;7.03;;;5.40;91.50;;;;;;4962994;28;20051;-88
2024/02/27 00:14:17;;;;;;;10.18;6.95;;;5.40;91.40;;;;;;4952673;28;20506;-89
2024/02/27 00:16:43;;;;;;;11.60;6.40;;;5.50;91.40;;;;;;4975823;28;20027;-87
2024/02/27 00:19:08;;;;;;;12.57;6.97;;;5.40;91.50;;;;;;4982756;28;20034;-85
2024/02/27 00:21:34;;;;;;;11.38;6.60;;;5.40;91.40;;;;;;4975533;28;20029;-88
2024/02/27 00:24:00;;;;;;;11.93;6.90;;;5.50;91.40;;;;;;4977505;28;20014;-87
2024/02/27 00:26:25;;;;;;;12.50;6.55;;;5.50;91.40;;;;;;4978649;28;20043;-88
2024/02/27 00:28:51;;;;;;;11.90;6.47;;;5.40;91.40;;;;;;4982337;28;20029;-87
2024/02/27 00:31:17;;;;;;;9.27;5.93;;;5.40;91.50;;;;;;4973787;28;20041;-88
2024/02/27 00:33:43;;;;;;;14.68;7.00;;;5.40;91.50;;;;;;4981660;28;20015;-87
2024/02/27 00:36:08;;;;;;;11.32;6.72;;;5.40;91.60;;;;;;4979601;28;20412;-86
2024/02/27 00:38:34;;;;;;;8.55;6.10;;;5.40;91.60;;;;;;4981055;28;20433;-89
2024/02/27 00:41:04;;;;;;;12.10;7.32;;;5.40;91.60;;;;;;4978036;28;20050;-88
2024/02/27 00:43:30;;;;;;;11.30;6.88;;;5.40;91.60;;;;;;4979727;28;20401;-89
2024/02/27 00:45:56;;;;;;;14.40;7.03;;;5.30;91.50;;;;;;4978761;28;20034;-89
2024/02/27 00:48:21;;;;;;;12.77;7.18;;;5.40;91.70;;;;;;4981396;28;20018;-89
2024/02/27 00:50:48;;;;;;;12.32;7.50;;;5.30;91.60;;;;;;4979613;28;20022;-86
2024/02/27 00:53:14;;;;;;;12.35;7.35;;;5.30;91.70;;;;;;4984320;28;20035;-88
2024/02/27 00:55:40;;;;;;;12.45;6.63;;;5.30;91.70;;;;;;4983723;28;20030;-84
2024/02/27 00:58:05;;;;;;;14.15;8.30;;;5.30;91.80;;;;;;4991493;28;20130;-85
2024/02/27 01:00:31;;;;;;;12.13;7.68;;;5.20;91.90;;;;;;5007930;28;20042;-85
2024/02/27 01:02:57;;;;;;;11.40;7.82;;;5.20;91.90;;;;;;4994532;28;20109;-87
2024/02/27 01:05:23;;;;;;;12.88;8.30;;;5.20;91.90;;;;;;4975580;28;20051;-89
2024/02/27 01:07:49;;;;;;;13.25;7.75;;;5.20;91.90;;;;;;4960173;28;20019;-88
2024/02/27 01:10:14;;;;;;;13.50;7.68;;;5.20;91.90;;;;;;4970573;28;20042;-89
2024/02/27 01:12:40;;;;;;;16.17;7.55;;;5.20;92.10;;;;;;4964649;28;20105;-88
2024/02/27 01:15:06;;;;;;;11.98;7.55;;;5.20;92.00;;;;;;4968244;28;20058;-89
2024/02/27 01:17:32;;;;;;;11.95;8.00;;;5.10;92.10;;;;;;4960834;28;20142;-88
2024/02/27 01:19:57;;;;;;;12.95;8.73;;;5.10;92.30;;;;;;4960498;28;20253;-87
2024/02/27 01:22:27;;;;;;;16.85;8.82;;;5.10;92.30;;;;;;4987866;28;20030;-88
2024/02/27 01:24:54;;;;;;;13.23;7.95;;;5.10;92.30;;;;;;4979386;28;20045;-88
2024/02/27 01:27:20;;;;;;;13.27;8.27;;;5.00;92.30;;;;;;4983461;28;20046;-87
2024/02/27 01:29:45;;;;;;;13.88;8.50;;;5.00;92.50;;;;;;4984056;28;20039;-87
2024/02/27 01:32:11;;;;;;;15.50;9.30;;;5.00;92.60;;;;;;4983998;28;20049;-86
2024/02/27 01:34:37;;;;;;;13.05;8.57;;;5.00;92.60;;;;;;4981178;28;20034;-85
2024/02/27 01:37:02;;;;;;;14.65;9.15;;;5.00;92.70;;;;;;4982349;28;20053;-87
2024/02/27 01:39:28;;;;;;;16.70;9.27;;;5.10;92.70;;;;;;4980517;28;21496;-85
2024/02/27 01:41:53;;;;;;;19.73;9.45;;;5.00;92.60;;;;;;4983652;28;20030;-87
2024/02/27 01:44:19;;;;;;;15.98;9.38;;;5.10;92.50;;;;;;4979365;28;20089;-87
2024/02/27 01:46:45;;;;;;;14.10;9.05;;;5.10;92.50;;;;;;4978330;28;20113;-88
2024/02/27 01:49:13;;;;;;;15.52;10.15;;;5.10;92.50;;;;;;4983075;28;20045;-86
2024/02/27 01:51:40;;;;;;;15.60;10.25;;;5.10;92.40;;;;;;4978561;28;20176;-88
2024/02/27 01:54:07;;;;;;;15.27;10.23;;;5.10;92.30;;;;;;4987679;28;20090;-84
2024/02/27 01:56:34;;;;;;;14.15;9.02;;;5.10;92.30;;;;;;4995621;28;20030;-84
2024/02/27 01:59:00;;;;;;;19.85;10.35;;;5.00;92.30;;;;;;4964215;28;20023;-88
2024/02/27 02:01:28;;;;;;;16.50;10.20;;;5.00;92.50;;;;;;4978807;28;20555;-88
2024/02/27 02:03:55;;;;;;;16.27;9.88;;;5.00;92.40;;;;;;4983004;28;20099;-85
2024/02/27 02:06:21;;;;;;;15.93;9.65;;;5.00;92.50;;;;;;4977113;28;20038;-87
2024/02/27 02:08:46;;;;;;;17.40;11.00;;;5.00;92.50;;;;;;4980706;28;20025;-87
2024/02/27 02:11:13;;;;;;;18.02;10.05;;;5.00;92.50;;;;;;4979641;28;20205;-84
2024/02/27 02:13:39;;;;;;;15.82;9.50;;;5.00;92.50;;;;;;4979901;28;20081;-87
2024/02/27 02:16:05;;;;;;;14.27;9.80;;;5.00;92.50;;;;;;4978235;28;20038;-86
2024/02/27 02:18:31;;;;;;;16.02;10.25;;;4.90;92.50;;;;;;4975451;28;20048;-88
2024/02/27 02:20:58;;;;;;;17.73;10.45;;;5.00;92.50;;;;;;4980679;28;20497;-86
2024/02/27 02:23:24;;;;;;;17.38;10.57;;;5.00;92.40;;;;;;4979321;28;20094;-84
2024/02/27 02:25:50;;;;;;;15.07;10.75;;;5.00;92.50;;;;;;4978859;28;20098;-88
2024/02/27 02:28:16;;;;;;;15.38;10.30;;;5.00;92.50;;;;;;4979326;28;20038;-89
2024/02/27 02:30:42;;;;;;;18.15;11.63;;;5.10;92.50;;;;;;4975376;28;20053;-87
2024/02/27 02:33:11;;;;;;;14.90;10.85;;;5.00;92.50;;;;;;4980206;28;20027;-86
2024/02/27 02:35:37;;;;;;;19.25;10.88;;;5.00;92.50;;;;;;4976713;28;20068;-88
2024/02/27 02:38:02;;;;;;;15.68;11.10;;;5.00;92.50;;;;;;4978181;28;20037;-89
2024/02/27 02:40:28;;;;;;;17.83;10.75;;;5.00;92.60;;;;;;4963855;28;20085;-88
2024/02/27 02:42:54;;;;;;;17.30;11.43;;;5.10;92.40;;;;;;4975443;28;20459;-87
2024/02/27 02:45:19;;;;;;;15.70;11.38;;;5.10;92.50;;;;;;4979649;28;20738;-86
2024/02/27 02:47:45;;;;;;;17.73;11.15;;;5.00;92.60;;;;;;4975565;28;20032;-87
2024/02/27 02:50:14;;;;;;;18.58;11.43;;;5.00;92.50;;;;;;4977660;28;20030;-85
2024/02/27 02:52:40;;;;;;;17.25;11.40;;;5.00;92.60;;;;;;4976299;28;20068;-88
2024/02/27 02:55:07;;;;;;;17.25;10.27;;;5.00;92.50;;;;;;4967220;28;20035;-88
2024/02/27 02:57:33;;;;;;;17.50;11.27;;;5.10;92.40;;;;;;4957745;28;20015;-88
2024/02/27 03:00:00;;;;;;;19.50;10.80;;;5.10;92.30;;;;;;4963102;28;20271;-83
2024/02/27 03:02:25;;;;;;;17.00;11.07;;;5.10;92.30;;;;;;4977999;28;20374;-88
2024/02/27 03:04:51;;;;;;;18.40;10.82;;;5.10;92.30;;;;;;4980458;28;20563;-88
2024/02/27 03:07:17;;;;;;;19.52;11.98;;;5.10;92.30;;;;;;4977837;28;20046;-86
2024/02/27 03:09:43;;;;;;;17.63;10.50;;;5.10;92.20;;;;;;4978817;28;20027;-84
2024/02/27 03:12:09;;;;;;;17.85;11.07;;;5.10;92.30;;;;;;4978046;28;20319;-86
2024/02/27 03:14:35;;;;;;;17.13;11.55;;;5.10;92.30;;;;;;4976507;28;21122;-86
2024/02/27 03:17:01;;;;;;;17.02;10.95;;;5.10;92.30;;;;;;4979699;28;20038;-87
2024/02/27 03:19:26;;;;;;;19.40;11.68;;;5.10;92.20;;;;;;4975095;28;20105;-84
2024/02/27 03:21:55;;;;;;;18.95;11.45;;;5.10;92.10;;;;;;4960844;28;20037;-86
2024/02/27 03:24:22;;;;;;;15.43;10.95;;;5.10;92.20;;;;;;4959035;28;20111;-87
2024/02/27 03:26:47;;;;;;;19.13;11.82;;;5.10;92.20;;;;;;4959099;28;20043;-86
2024/02/27 03:29:14;;;;;;;17.35;11.63;;;5.10;92.20;;;;;;4985812;28;20372;-86
2024/02/27 03:31:39;;;;;;;16.90;12.05;;;5.10;92.20;;;;;;4970682;28;20038;-87
2024/02/27 03:34:05;;;;;;;18.52;11.85;;;5.10;92.30;;;;;;4977354;28;20045;-85
2024/02/27 03:36:31;;;;;;;18.30;11.23;;;5.10;92.30;;;;;;4978556;28;20053;-85
2024/02/27 03:38:56;;;;;;;17.95;11.27;;;5.00;92.40;;;;;;4979771;28;20339;-87
2024/02/27 03:41:22;;;;;;;22.15;12.77;;;5.10;92.50;;;;;;4962994;28;20043;-85
2024/02/27 03:43:48;;;;;;;19.02;13.25;;;5.10;92.40;;;;;;4962198;28;20035;-89
2024/02/27 03:46:13;;;;;;;16.73;11.50;;;5.00;92.40;;;;;;4964060;28;20098;-88
2024/02/27 03:48:39;;;;;;;18.65;12.52;;;5.00;92.50;;;;;;4960953;28;20439;-84
2024/02/27 03:51:05;;;;;;;18.77;12.38;;;5.00;92.50;;;;;;4957644;28;20365;-85
2024/02/27 03:53:31;;;;;;;19.17;12.02;;;5.00;92.50;;;;;;4976915;28;20030;-87
2024/02/27 03:55:57;;;;;;;16.33;12.13;;;4.90;92.60;;;;;;4972782;28;20069;-85
2024/02/27 03:58:22;;;;;;;19.10;12.50;;;4.90;92.70;;;;;;4964727;28;20434;-87
2024/02/27 04:00:48;;;;;;;17.65;12.20;;;4.90;92.60;;;;;;4954685;28;20031;-85
2024/02/27 04:03:14;;;;;;;18.55;12.20;;;4.80;92.70;;;;;;4962006;28;20404;-88
2024/02/27 04:05:43;;;;;;;17.95;13.55;;;4.80;92.70;;;;;;4974409;28;20051;-85
2024/02/27 04:08:09;;;;;;;20.00;11.93;;;4.80;92.60;;;;;;4963583;28;21185;-86
2024/02/27 04:10:35;;;;;;;16.77;11.73;;;4.80;92.60;;;;;;4961291;28;20038;-87
2024/02/27 04:13:01;;;;;;;19.95;12.77;;;4.70;92.70;;;;;;4953620;28;20799;-88
2024/02/27 04:15:26;;;;;;;17.13;11.65;;;4.70;92.70;;;;;;4967722;28;20085;-87
2024/02/27 04:17:52;;;;;;;20.05;12.18;;;4.70;92.60;;;;;;4974086;28;20019;-86
2024/02/27 04:20:18;;;;;;;20.63;12.68;;;4.70;92.70;;;;;;4976709;28;20218;-86
2024/02/27 04:22:44;;;;;;;17.50;11.10;;;4.70;92.70;;;;;;4976998;28;20039;-88
2024/02/27 04:25:09;;;;;;;17.60;11.88;;;4.70;92.90;;;;;;4977391;28;20038;-85
2024/02/27 04:27:35;;;;;;;18.85;12.55;;;4.60;93.00;;;;;;4978371;28;20023;-89
2024/02/27 04:30:01;;;;;;;17.00;11.18;;;4.70;92.90;;;;;;4974255;28;20038;-87
2024/02/27 04:32:26;;;;;;;19.15;11.73;;;4.70;92.80;;;;;;4961702;28;20419;-84
2024/02/27 04:34:52;;;;;;;17.92;12.98;;;4.60;92.80;;;;;;4966891;28;20085;-86
2024/02/27 04:37:18;;;;;;;17.95;12.48;;;4.60;92.80;;;;;;4978818;28;20104;-84
2024/02/27 04:39:44;;;;;;;17.05;11.32;;;4.60;92.80;;;;;;4989021;28;20030;-84
2024/02/27 04:42:10;;;;;;;18.17;11.65;;;4.70;92.80;;;;;;4988637;28;20046;-83
2024/02/27 04:44:35;;;;;;;19.13;11.82;;;4.60;92.80;;;;;;4984130;28;20045;-85
2024/02/27 04:47:01;;;;;;;17.30;12.52;;;4.70;92.80;;;;;;4995971;28;20046;-85
2024/02/27 04:49:27;;;;;;;19.70;13.45;;;4.70;92.80;;;;;;4975988;28;20019;-86
2024/02/27 04:51:52;;;;;;;19.90;12.57;;;4.70;92.80;;;;;;4971931;28;20031;-85
2024/02/27 04:54:18;;;;;;;19.17;12.60;;;4.70;92.70;;;;;;4961710;28;20101;-88
2024/02/27 04:56:44;;;;;;;16.38;11.75;;;4.70;92.70;;;;;;4980877;28;20026;-90
2024/02/27 04:59:09;;;;;;;19.45;12.00;;;4.80;92.70;;;;;;4984605;28;20469;-86
2024/02/27 05:01:35;;;;;;;17.30;11.07;;;4.80;92.60;;;;;;4982262;28;20045;-85
2024/02/27 05:04:00;;;;;;;19.15;11.57;;;4.80;92.50;;;;;;4982435;28;20026;-86
2024/02/27 05:06:26;;;;;;;16.50;10.60;;;4.80;92.60;;;;;;4980416;28;20034;-90
2024/02/27 05:08:52;;;;;;;16.77;11.10;;;4.80;92.50;;;;;;4982038;28;20077;-88
2024/02/27 05:11:18;;;;;;;16.60;12.10;;;4.80;92.30;;;;;;4973701;28;20035;-87
2024/02/27 05:13:43;;;;;;;16.58;10.18;;;4.80;92.30;;;;;;4972497;28;20067;-88
2024/02/27 05:16:10;;;;;;;16.83;11.18;;;4.80;92.20;;;;;;4965600;28;20054;-86
2024/02/27 05:18:35;;;;;;;16.75;10.75;;;4.80;92.10;;;;;;4976864;28;20074;-88
2024/02/27 05:21:05;;;;;;;17.83;10.38;;;4.80;92.10;;;;;;4977104;28;20149;-87
2024/02/27 05:23:31;;;;;;;16.63;10.55;;;4.90;91.80;;;;;;4979561;28;20052;-85
2024/02/27 05:25:57;;;;;;;20.48;10.90;;;4.90;91.80;;;;;;4985008;28;20058;-86
2024/02/27 05:28:25;;;;;;;14.20;9.85;;;4.90;91.70;;;;;;4982468;28;20006;-88
2024/02/27 05:30:51;;;;;;;14.52;10.23;;;4.90;91.60;;;;;;4983712;28;20039;-85
2024/02/27 05:33:17;;;;;;;19.77;11.55;;;4.90;91.60;;;;;;4983998;28;20038;-88
2024/02/27 05:35:42;;;;;;;19.55;10.63;;;5.00;91.60;;;;;;4981008;28;20303;-91
2024/02/27 05:38:08;;;;;;;15.20;10.30;;;5.00;91.40;;;;;;4978394;28;20037;-89
2024/02/27 05:40:33;;;;;;;14.70;9.80;;;5.00;91.40;;;;;;4975505;28;20022;-90
2024/02/27 05:42:59;;;;;;;16.40;10.95;;;5.00;91.40;;;;;;4975952;28;20052;-84
2024/02/27 05:45:25;;;;;;;14.43;9.63;;;5.00;91.40;;;;;;4980157;28;20060;-87
2024/02/27 05:47:51;;;;;;;15.40;9.77;;;5.00;91.20;;;;;;4980927;28;20175;-90
2024/02/27 05:50:17;;;;;;;16.98;10.25;;;5.00;91.10;;;;;;4997423;28;20039;-83
2024/02/27 05:52:42;;;;;;;14.65;9.65;;;5.00;91.20;;;;;;5002351;28;20017;-84
2024/02/27 05:55:08;;;;;;;16.20;10.00;;;5.00;91.20;;;;;;4996954;28;20039;-84
2024/02/27 05:57:34;;;;;;;14.98;10.02;;;5.00;91.30;;;;;;4990706;28;20022;-91
2024/02/27 06:00:00;;;;;;;16.63;10.00;;;5.00;91.10;;;;;;4985110;28;20030;-89
2024/02/27 06:02:25;;;;;;;18.42;9.90;;;5.00;91.20;;;;;;4980693;28;20033;-86
2024/02/27 06:04:51;;;;;;;16.00;9.13;;;5.00;91.20;;;;;;4980788;28;20221;-85
2024/02/27 06:07:17;;;;;;;17.17;9.70;;;5.00;91.10;;;;;;4982386;28;20107;-84
2024/02/27 06:09:42;;;;;;;14.65;9.10;;;5.00;91.10;;;;;;4980032;28;20061;-89
2024/02/27 06:12:08;;;;;;;16.23;9.73;;;5.00;91.20;;;;;;4975678;28;20030;-87
2024/02/27 06:14:34;;;;;;;13.65;9.38;;;5.00;91.20;;;;;;4992679;28;20011;-84
2024/02/27 06:16:59;;;;;;;15.15;9.07;;;5.00;91.20;;;;;;4988858;28;20026;-84
2024/02/27 06:19:26;;;;;;;15.07;9.07;;;4.90;91.10;;;;;;4981474;28;20552;-90
2024/02/27 06:22:10;;;;;;;15.57;8.90;;;4.90;91.20;;;;;;4979116;28;20537;-87
2024/02/27 06:24:37;;;;;;;14.25;9.05;;;4.90;91.30;;;;;;4971465;28;20084;-84
2024/02/27 06:27:03;;;;;;;14.32;9.13;;;4.80;91.20;;;;;;4975112;28;20042;-86
2024/02/27 06:29:28;;;;;;;16.33;9.60;;;4.80;91.30;;;;;;4980326;28;20387;-82
2024/02/27 06:31:54;;;;;;;13.73;8.77;;;4.80;91.20;;;;;;4977238;28;20428;-83
2024/02/27 06:34:20;;;;;;;13.35;8.85;;;4.80;91.10;;;;;;4978179;28;20026;-84
2024/02/27 06:36:50;;;;;;;17.77;9.57;;;4.80;91.10;;;;;;4935138;28;1335645;-83
2024/02/27 06:39:16;;;;;;;14.60;10.10;;;4.70;91.20;;;;;;4977658;28;20346;-84
2024/02/27 06:41:50;;;;;;;16.00;9.75;;;4.70;91.30;;;;;;4961869;28;20045;-84
2024/02/27 06:44:19;;;;;;;15.40;9.80;;;4.70;91.30;;;;;;4958961;28;20023;-85
2024/02/27 06:46:45;;;;;;;14.80;9.77;;;4.70;91.30;;;;;;4976285;28;20055;-81
2024/02/27 06:49:11;;;;;;;15.00;10.30;;;4.60;91.40;;;;;;4956713;28;20033;-84
2024/02/27 06:51:37;;;;;;;16.90;9.50;;;4.60;91.40;;;;;;4973517;28;20038;-86
2024/02/27 06:54:04;;;;;;;14.50;9.43;;;4.60;91.40;;;;;;4978931;28;20178;-86
2024/02/27 06:56:30;;;;;;;15.05;9.70;;;4.60;91.50;;;;;;4977490;28;20027;-85
2024/02/27 06:58:56;;;;;;;16.77;9.73;;;4.60;91.60;;;;;;4985721;28;20432;-86
2024/02/27 07:01:23;;;;;;;15.75;10.52;;;4.50;91.70;;;;;;4964025;28;20094;-84
2024/02/27 07:03:50;;;;;;;15.38;9.80;;;4.50;91.80;;;;;;4961121;28;20374;-83
2024/02/27 07:06:15;;;;;;;15.43;10.00;;;4.50;91.80;;;;;;4977354;28;20045;-84
2024/02/27 07:08:41;;;;;;;15.63;10.50;;;4.50;91.90;;;;;;4980554;28;20170;-84
2024/02/27 07:11:08;;;;;;;15.07;10.35;;;4.50;91.90;;;;;;4981015;28;20034;-85
2024/02/27 07:13:34;;;;;;;15.45;10.70;;;4.50;92.00;;;;;;4978350;28;20403;-85
2024/02/27 07:15:59;;;;;;;19.42;10.32;;;4.50;92.10;;;;;;4974820;28;20122;-83
2024/02/27 07:18:25;;;;;;;15.80;10.30;;;4.50;92.00;;;;;;4997272;28;20026;-80
2024/02/27 07:20:50;;;;;;;17.15;10.15;;;4.50;92.10;;;;;;5000855;28;20042;-72
2024/02/27 07:23:16;;;;;;;16.67;11.65;;;4.50;92.10;;;;;;4965338;28;20038;-75
2024/02/27 07:25:42;;;;;;;18.33;10.45;;;4.50;92.10;;;;;;4954591;28;20125;-75
2024/02/27 07:28:07;;;;;;;19.15;11.43;;;4.50;92.10;;;;;;4956323;28;20027;-75
2024/02/27 07:30:34;;;;;;;15.30;9.82;;;4.60;92.00;;;;;;4969639;28;20110;-76
2024/02/27 07:32:59;;;;;;;17.25;10.80;;;4.60;92.00;;;;;;4975994;28;20038;-75
2024/02/27 07:35:25;;;;;;;17.45;11.80;;;4.60;92.00;;;;;;4971846;28;20120;-76
2024/02/27 07:37:52;;;;;;;17.70;10.82;;;4.60;92.00;;;;;;4977755;28;20026;-77
2024/02/27 07:40:18;;;;;;;16.50;10.82;;;4.60;92.10;;;;;;4976045;28;20022;-74
2024/02/27 07:42:43;;;;;;;16.95;10.55;;;4.60;92.00;;;;;;4979782;28;20023;-75
2024/02/27 07:45:09;;;;;;;19.80;11.05;;;4.70;92.10;;;;;;4976407;28;20034;-75
2024/02/27 07:47:35;;;;;;;15.48;9.75;;;4.70;91.90;;;;;;4975612;28;20037;-73
2024/02/27 07:50:00;;;;;;;17.30;10.88;;;4.80;91.90;;;;;;4976054;28;20042;-74
2024/02/27 07:52:26;;;;;;;16.17;10.10;;;4.80;91.80;;;;;;4977043;28;20034;-73
2024/02/27 07:54:52;;;;;;;17.33;10.98;;;4.80;91.70;;;;;;4973760;28;20034;-74
2024/02/27 07:57:17;;;;;;;15.35;9.95;;;4.80;91.70;;;;;;4953886;28;20041;-76
2024/02/27 07:59:43;;;;;;;17.13;11.00;;;4.90;91.50;;;;;;4955751;28;20049;-72
2024/02/27 08:02:08;;;;;;;15.00;9.60;;;4.90;91.40;;;;;;4969467;28;20393;-75
2024/02/27 08:04:34;;;;;;;15.77;10.35;;;5.00;91.40;;;;;;4975625;28;20196;-74
2024/02/27 08:07:00;;;;;;;16.48;10.63;;;5.10;91.10;;;;;;4973036;28;20145;-73
2024/02/27 08:09:25;;;;;;;18.25;10.60;;;5.10;90.90;;;;;;4974711;28;20414;-73
2024/02/27 08:11:51;;;;;;;16.23;10.55;;;5.10;90.80;;;;;;4977607;28;20030;-75
2024/02/27 08:14:17;;;;;;;17.95;10.32;;;5.20;90.80;;;;;;4978715;28;20302;-74
2024/02/27 08:16:43;;;;;;;15.50;10.35;;;5.30;90.70;;;;;;4978034;28;20485;-75
2024/02/27 08:19:09;;;;;;;15.60;9.80;;;5.30;90.50;;;;;;4991221;28;20027;-75
2024/02/27 08:21:34;;;;;;;17.08;10.25;;;5.40;90.20;;;;;;4975395;28;20453;-77
2024/02/27 08:24:01;;;;;;;17.52;11.00;;;5.50;90.10;;;;;;4976398;28;20053;-75
2024/02/27 08:26:28;;;;;;;16.83;10.73;;;5.60;90.00;;;;;;4957137;28;20058;-73
2024/02/27 08:28:54;;;;;;;16.48;11.75;;;5.60;89.30;;;;;;4958918;28;20023;-75
2024/02/27 08:31:20;;;;;;;15.60;10.65;;;5.70;89.10;;;;;;4965068;28;20034;-76
2024/02/27 08:33:45;;;;;;;18.45;10.73;;;5.80;89.10;;;;;;4977016;28;20085;-73
2024/02/27 08:36:11;;;;;;;17.40;11.25;;;5.90;89.00;;;;;;4971696;28;20054;-77
2024/02/27 08:38:37;;;;;;;17.45;10.70;;;6.10;88.50;;;;;;4977271;28;20030;-74
2024/02/27 08:41:03;;;;;;;15.38;10.10;;;6.20;88.40;;;;;;4975150;28;20038;-76
2024/02/27 08:43:28;;;;;;;15.85;9.88;;;6.30;87.80;;;;;;4973934;28;20046;-75
2024/02/27 08:45:54;;;;;;;14.98;10.15;;;6.40;87.70;;;;;;4972755;28;20057;-77
2024/02/27 08:48:20;;;;;;;19.13;11.27;;;6.40;87.00;;;;;;4975697;28;20030;-75
2024/02/27 08:50:47;;;;;;;16.52;10.25;;;6.40;87.10;;;;;;4964514;28;20034;-76
2024/02/27 08:53:14;;;;;;;14.85;10.05;;;6.50;87.10;;;;;;4955712;28;20019;-77
2024/02/27 08:55:40;;;;;;;16.65;12.77;;;6.60;86.50;;;;;;4954763;28;20051;-77
2024/02/27 08:58:06;;;;;;;15.43;10.35;;;6.60;86.70;;;;;;4953096;28;20505;-74
2024/02/27 09:00:32;;;;;;;16.08;10.15;;;6.80;86.50;;;;;;4955439;28;20421;-77
2024/02/27 09:02:58;;;;;;;15.65;11.10;;;6.80;85.80;;;;;;4977461;28;20026;-75
2024/02/27 09:05:24;;;;;;;16.30;10.70;;;6.80;85.70;;;;;;4968762;28;20035;-74
2024/02/27 09:07:50;;;;;;;16.92;10.63;;;6.90;85.80;;;;;;4977278;28;20109;-74
2024/02/27 09:10:17;;;;;;;15.75;10.82;;;6.90;85.20;;;;;;4977147;28;20527;-72
2024/02/27 09:12:43;;;;;;;18.45;11.77;;;6.80;85.20;;;;;;4975157;28;20015;-74
2024/02/27 09:15:09;;;;;;;17.20;12.65;;;6.80;86.00;;;;;;4973897;28;20073;-75
2024/02/27 09:17:35;;;;;;;17.05;11.60;;;6.90;86.10;;;;;;4976225;28;20566;-77
2024/02/27 09:20:02;;;;;;;15.73;10.52;;;7.10;85.60;;;;;;4977530;28;20026;-76
2024/02/27 09:22:28;;;;;;;19.45;11.95;;;7.40;84.60;;;;;;4981277;28;20026;-75
2024/02/27 09:24:53;;;;;;;16.08;10.77;;;7.60;84.80;;;;;;4981589;28;20150;-74
2024/02/27 09:27:23;;;;;;;17.27;11.10;;;7.50;84.00;;;;;;4959894;28;20055;-76
2024/02/27 09:29:49;;;;;;;16.52;11.43;;;7.70;83.90;;;;;;4959689;28;20044;-74
2024/02/27 09:32:16;;;;;;;16.25;10.10;;;7.70;83.30;;;;;;4979350;28;20034;-73
2024/02/27 09:34:43;;;;;;;15.45;10.73;;;7.60;82.10;;;;;;4979523;28;20034;-76
2024/02/27 09:37:08;;;;;;;16.58;10.43;;;7.50;82.70;;;;;;4980113;28;20060;-77
2024/02/27 09:39:34;;;;;;;16.05;10.25;;;7.50;83.00;;;;;;4978364;28;20084;-73
2024/02/27 09:42:11;;;;;;;14.90;10.65;;;7.60;83.00;;;;;;4978894;28;20038;-78
2024/02/27 09:44:41;;;;;;;15.55;11.15;;;7.80;82.90;;;;;;4977995;28;20101;-76
2024/02/27 09:47:17;;;;;;;15.98;10.93;;;7.70;82.20;;;;;;4979203;28;20038;-76
2024/02/27 09:49:43;;;;;;;17.00;11.07;;;7.80;83.20;;;;;;4974749;28;20062;-74
2024/02/27 09:52:14;;;;;;;15.18;10.32;;;8.00;82.40;;;;;;4957851;28;20031;-75
2024/02/27 09:54:40;;;;;;;14.63;10.25;;;8.00;82.30;;;;;;4963406;28;20049;-76
2024/02/27 09:57:06;;;;;;;17.77;11.77;;;7.80;82.30;;;;;;4980085;28;20031;-75
2024/02/27 09:59:32;;;;;;;15.52;10.98;;;7.80;82.40;;;;;;4977542;28;20025;-73
2024/02/27 10:02:05;;;;;;;14.73;11.13;;;8.10;82.70;;;;;;4980309;28;20042;-74
2024/02/27 10:04:34;;;;;;;15.60;10.93;;;8.10;82.70;;;;;;4976471;28;20057;-75
2024/02/27 10:07:02;;;;;;;17.30;10.65;;;8.10;81.20;;;;;;4976944;28;20057;-74
2024/02/27 10:09:31;;;;;;;17.08;10.88;;;8.10;81.70;;;;;;4979068;28;21801;-72
2024/02/27 10:11:57;;;;;;;18.65;11.55;;;8.20;81.60;;;;;;4978989;28;20042;-73
2024/02/27 10:14:37;;;;;;;16.00;11.23;;;8.10;81.10;;;;;;4977491;28;20030;-74
2024/02/27 10:17:07;;;;;;;16.75;10.77;;;8.30;81.30;;;;;;4978309;28;20338;-72
2024/02/27 10:19:34;;;;;;;17.13;11.38;;;8.20;80.30;;;;;;4975707;28;20380;-72
2024/02/27 10:22:00;;;;;;;15.77;10.63;;;8.30;80.90;;;;;;4975200;28;20038;-73
2024/02/27 10:24:29;;;;;;;15.05;9.93;;;8.50;80.70;;;;;;4977134;28;20669;-71
2024/02/27 10:27:07;;;;;;;14.70;9.90;;;8.50;79.30;;;;;;4977688;28;20034;-72
2024/02/27 10:29:33;;;;;;;16.30;11.57;;;8.40;79.60;;;;;;4974615;28;20592;-75
2024/02/27 10:31:59;;;;;;;17.92;11.32;;;8.40;80.10;;;;;;4975638;28;20037;-74
2024/02/27 10:34:27;;;;;;;15.80;10.38;;;8.60;80.20;;;;;;4979175;28;20615;-75
2024/02/27 10:36:59;;;;;;;14.05;9.77;;;8.40;79.20;;;;;;4974450;28;20140;-74
2024/02/27 10:39:25;;;;;;;15.98;10.40;;;8.60;79.60;;;;;;4965570;28;20026;-74
2024/02/27 10:41:52;;;;;;;15.70;10.90;;;8.50;79.10;;;;;;4974240;28;20037;-74
2024/02/27 10:44:18;;;;;;;17.48;10.98;;;8.60;79.20;;;;;;4976961;28;20034;-73
2024/02/27 10:46:45;;;;;;;15.82;10.75;;;8.60;79.40;;;;;;4978760;28;20377;-75
2024/02/27 10:49:11;;;;;;;15.30;10.32;;;8.90;78.80;;;;;;4977647;28;20018;-73
2024/02/27 10:51:38;;;;;;;15.40;10.70;;;9.00;77.90;;;;;;4976881;28;20647;-75
2024/02/27 10:54:04;;;;;;;17.60;11.52;;;8.80;77.70;;;;;;4977982;28;20406;-78
2024/02/27 10:56:30;;;;;;;16.75;11.10;;;8.80;78.40;;;;;;4976803;28;20030;-74
2024/02/27 10:58:56;;;;;;;18.98;11.70;;;9.00;79.60;;;;;;4976753;28;20018;-83
2024/02/27 11:01:22;;;;;;;16.17;11.55;;;9.10;79.10;;;;;;4973260;28;20041;-79
2024/02/27 11:03:53;;;;;;;16.90;11.20;;;9.30;78.60;;;;;;4996780;28;20445;-78
2024/02/27 11:06:26;;;;;;;15.13;10.60;;;9.40;78.60;;;;;;4975517;28;20043;-81
2024/02/27 11:09:03;;;;;;;16.33;11.50;;;9.20;76.80;;;;;;4979079;28;20022;-82
2024/02/27 11:11:29;;;;;;;18.05;12.23;;;9.40;78.60;;;;;;4974063;28;20199;-82
2024/02/27 11:14:06;;;;;;;14.55;10.45;;;9.50;77.20;;;;;;4978283;28;20110;-78
2024/02/27 11:16:32;;;;;;;15.30;11.07;;;9.30;77.10;;;;;;4964643;28;20278;-78
2024/02/27 11:19:04;;;;;;;13.82;9.00;;;9.40;76.80;;;;;;4954515;28;20038;-74
2024/02/27 11:21:30;;;;;;;15.73;10.55;;;9.20;77.10;;;;;;4971855;28;20109;-75
2024/02/27 11:23:56;;;;;;;17.42;11.55;;;9.30;78.00;;;;;;4976151;28;20256;-79
2024/02/27 11:26:22;;;;;;;15.70;10.40;;;9.50;77.70;;;;;;4972239;28;20061;-73
2024/02/27 11:28:51;;;;;;;14.98;10.75;;;9.60;78.30;;;;;;4974823;28;20129;-75
2024/02/27 11:31:18;;;;;;;15.43;10.43;;;9.70;77.70;;;;;;4974229;28;20129;-75
2024/02/27 11:33:53;;;;;;;14.77;10.70;;;9.70;77.80;;;;;;4974858;28;20026;-78
2024/02/27 11:36:18;;;;;;;15.75;10.80;;;9.70;77.20;;;;;;4954009;28;20834;-78
2024/02/27 11:38:46;;;;;;;16.60;11.90;;;9.80;77.30;;;;;;4952137;28;20555;-78
2024/02/27 11:41:19;;;;;;;15.23;10.45;;;9.90;77.10;;;;;;4954295;28;20038;-78
2024/02/27 11:43:47;;;;;;;15.15;11.13;;;9.80;77.10;;;;;;4958326;28;20035;-78
2024/02/27 11:46:31;;;;;;;15.93;11.38;;;9.80;77.20;;;;;;4969169;28;20086;-77
2024/02/27 11:48:58;;;;;;;15.63;11.20;;;9.80;77.50;;;;;;4972572;28;20026;-79
2024/02/27 11:51:42;;;;;;;17.17;11.10;;;9.90;77.20;;;;;;4971656;28;20070;-78
2024/02/27 11:54:11;;;;;;;15.20;10.00;;;9.90;77.10;;;;;;4973403;28;20038;-78
2024/02/27 11:56:40;;;;;;;14.57;10.75;;;10.00;77.50;;;;;;4970718;28;20456;-80
2024/02/27 11:59:09;;;;;;;15.73;10.73;;;10.00;77.00;;;;;;4972836;28;20117;-78
2024/02/27 12:01:35;;;;;;;14.23;10.77;;;9.90;76.80;;;;;;4971753;28;20031;-79
2024/02/27 12:04:06;;;;;;;16.17;11.77;;;9.70;76.30;;;;;;4970964;28;20033;-80
2024/02/27 12:06:33;;;;;;;13.52;10.35;;;9.70;76.90;;;;;;4970305;28;20042;-79
2024/02/27 12:08:59;;;;;;;14.13;9.93;;;9.80;76.60;;;;;;4971184;28;20033;-79
2024/02/27 12:11:25;;;;;;;13.77;10.43;;;10.00;75.70;;;;;;4972182;28;20047;-78
2024/02/27 12:13:52;;;;;;;15.43;9.88;;;10.10;75.60;;;;;;4973274;28;20177;-80
2024/02/27 12:16:25;;;;;;;17.52;10.18;;;10.20;75.80;;;;;;4970578;28;20897;-76
2024/02/27 12:18:56;;;;;;;14.32;10.20;;;10.20;74.80;;;;;;4972223;28;20105;-76
2024/02/27 12:21:33;;;;;;;14.13;9.52;;;10.10;74.10;;;;;;4969518;28;20053;-77
2024/02/27 12:24:16;;;;;;;13.45;9.70;;;10.10;75.00;;;;;;4967337;28;20869;-76
2024/02/27 12:26:43;;;;;;;12.88;9.45;;;10.20;74.20;;;;;;4954121;28;20043;-79
2024/02/27 12:29:09;;;;;;;14.00;9.75;;;10.20;73.90;;;;;;4952162;28;21610;-85
2024/02/27 12:31:36;;;;;;;14.73;10.82;;;10.10;74.70;;;;;;4973705;28;20266;-80
2024/02/27 12:34:03;;;;;;;15.95;10.18;;;10.10;75.00;;;;;;4970614;28;20129;-81
2024/02/27 12:36:29;;;;;;;13.73;9.93;;;10.10;75.60;;;;;;4971399;28;21231;-82
2024/02/27 12:38:54;;;;;;;14.68;10.57;;;10.10;74.60;;;;;;4973696;28;20019;-83